createdAt,value
2022-10-04T00:02:24.565Z,0.20
2022-10-04T00:07:26.289Z,0.10
2022-10-04T00:12:28.044Z,0.40
2022-10-04T00:17:29.792Z,0.20
2022-10-04T00:22:31.301Z,0.10
2022-10-04T00:27:32.978Z,1.27
2022-10-04T00:32:34.492Z,0.13
2022-10-04T00:37:36.182Z,0.43
2022-10-04T00:42:37.710Z,1.75
2022-10-04T00:47:39.386Z,0.20
2022-10-04T00:52:40.921Z,0.38
2022-10-04T00:57:42.572Z,0.30
2022-10-04T01:02:44.101Z,0.20
2022-10-04T01:07:45.753Z,0.20
2022-10-04T01:12:47.520Z,0.25
2022-10-04T01:17:49.290Z,0.10
2022-10-04T01:22:51.020Z,0.20
2022-10-04T01:27:52.868Z,0.15
2022-10-04T01:32:54.570Z,0.20
2022-10-04T01:37:56.302Z,0.10
2022-10-04T01:42:57.825Z,0.15
2022-10-04T01:47:59.512Z,0.30
2022-10-04T01:53:01.268Z,0.10
2022-10-04T01:58:02.819Z,0.10
2022-10-04T02:03:04.464Z,0.85
2022-10-04T02:08:06.214Z,0.22
2022-10-04T02:13:07.971Z,0.10
2022-10-04T02:18:09.723Z,0.80
2022-10-04T02:23:11.372Z,0.20
2022-10-04T02:28:13.326Z,0.30
2022-10-04T02:33:14.986Z,0.10
2022-10-04T02:38:16.738Z,0.43
2022-10-04T02:43:18.497Z,0.10
2022-10-04T02:48:20.238Z,1.17
2022-10-04T02:53:21.985Z,0.25
2022-10-04T02:58:23.753Z,0.55
2022-10-04T03:03:25.302Z,0.20
2022-10-04T03:08:26.955Z,0.63
2022-10-04T03:13:28.688Z,0.10
2022-10-04T03:18:30.430Z,0.35
2022-10-04T03:23:32.213Z,0.20
2022-10-04T03:28:34.047Z,0.20
2022-10-04T03:33:35.713Z,0.25
2022-10-04T03:38:37.436Z,0.57
2022-10-04T03:43:39.105Z,0.47
2022-10-04T03:48:40.682Z,0.77
2022-10-04T03:53:42.425Z,1.08
2022-10-04T03:58:44.169Z,0.20
2022-10-04T04:03:45.948Z,0.20
2022-10-04T04:08:47.676Z,0.85
2022-10-04T04:13:49.447Z,0.35
2022-10-04T04:18:51.201Z,0.30
2022-10-04T04:23:52.964Z,0.10
2022-10-04T04:28:54.717Z,0.17
2022-10-04T04:33:56.446Z,0.20
2022-10-04T04:38:57.984Z,1.00
2022-10-04T04:43:59.551Z,0.35
2022-10-04T04:49:01.408Z,0.10
2022-10-04T04:54:03.174Z,0.17
2022-10-04T04:59:04.712Z,0.85
2022-10-04T05:04:06.356Z,0.20
2022-10-04T05:09:08.097Z,0.20
2022-10-04T05:14:09.836Z,0.47
2022-10-04T05:19:11.593Z,0.45
2022-10-04T05:24:13.345Z,0.20
2022-10-04T05:29:14.891Z,0.17
2022-10-04T05:34:16.559Z,0.30
2022-10-04T05:39:18.367Z,0.20
2022-10-04T05:44:19.979Z,0.20
2022-10-04T05:49:21.798Z,0.35
2022-10-04T05:54:23.563Z,0.30
2022-10-04T05:59:25.346Z,4.95
2022-10-04T06:04:26.964Z,0.40
2022-10-04T06:09:28.539Z,0.52
2022-10-04T06:14:30.261Z,0.20
2022-10-04T06:19:32.034Z,1.60
2022-10-04T06:24:33.560Z,0.20
2022-10-04T06:29:35.224Z,6.32
2022-10-04T06:34:36.977Z,0.13
2022-10-04T06:39:38.729Z,0.20
2022-10-04T06:44:44.294Z,0.10
2022-10-04T06:49:47.892Z,0.22
2022-10-04T06:54:49.681Z,0.35
2022-10-04T06:59:51.394Z,0.73
2022-10-04T07:05:09.341Z,0.32
2022-10-04T07:10:11.231Z,0.20
2022-10-04T07:15:12.962Z,0.45
2022-10-04T07:20:14.507Z,0.25
2022-10-04T07:25:16.159Z,0.20
2022-10-04T07:30:17.883Z,0.25
2022-10-04T07:35:19.668Z,0.25
2022-10-04T07:40:21.390Z,0.50
2022-10-04T07:45:26.796Z,0.20
2022-10-04T07:50:30.881Z,0.15
2022-10-04T07:55:32.615Z,0.30
2022-10-04T08:00:34.402Z,0.57
2022-10-04T08:05:35.937Z,0.50
2022-10-04T08:10:37.687Z,0.70
2022-10-04T08:15:39.489Z,2.58
2022-10-04T08:20:41.112Z,0.17
2022-10-04T08:25:42.660Z,4.47
2022-10-04T08:30:44.226Z,0.50
2022-10-04T08:35:45.829Z,0.15
2022-10-04T08:40:47.581Z,0.13
2022-10-04T08:45:49.313Z,1.45
2022-10-04T08:50:50.979Z,0.25
2022-10-04T08:55:52.548Z,0.10
2022-10-04T09:00:54.194Z,0.10
2022-10-04T09:05:56.046Z,0.15
2022-10-04T09:10:57.840Z,0.10
2022-10-04T09:15:59.628Z,0.10
2022-10-04T09:21:01.309Z,0.10
2022-10-04T09:26:03.068Z,0.28
2022-10-04T09:31:04.910Z,0.82
2022-10-04T09:36:06.582Z,0.45
2022-10-04T09:41:08.210Z,0.20
2022-10-04T09:46:09.777Z,0.68
2022-10-04T09:51:11.517Z,0.10
2022-10-04T09:56:13.303Z,0.10
2022-10-04T10:01:15.066Z,0.28
2022-10-04T10:06:16.782Z,0.28
2022-10-04T10:11:18.546Z,0.40
2022-10-04T10:16:20.320Z,0.98
2022-10-04T10:21:22.050Z,0.28
2022-10-04T10:26:23.799Z,0.65
2022-10-04T10:31:25.602Z,0.10
2022-10-04T10:36:27.344Z,1.23
2022-10-04T10:41:29.061Z,0.10
2022-10-04T10:46:30.874Z,0.15
2022-10-04T10:51:32.594Z,1.55
2022-10-04T10:56:34.286Z,0.70
2022-10-04T11:01:36.172Z,0.15
2022-10-04T11:06:37.828Z,0.20
2022-10-04T11:11:39.578Z,0.10
2022-10-04T11:16:41.097Z,0.20
2022-10-04T11:21:42.723Z,0.10
2022-10-04T11:26:44.741Z,0.20
2022-10-04T11:31:46.637Z,0.10
2022-10-04T11:36:48.690Z,0.57
2022-10-04T11:41:50.723Z,1.15
2022-10-04T11:46:52.546Z,0.30
2022-10-04T11:51:56.561Z,0.30
2022-10-04T11:57:02.691Z,0.50
2022-10-04T12:02:04.341Z,0.20
2022-10-04T12:07:06.062Z,0.10
2022-10-04T12:12:07.847Z,0.10
2022-10-04T12:17:09.613Z,0.10
2022-10-04T12:22:11.353Z,0.82
2022-10-04T12:27:13.105Z,0.50
2022-10-04T12:32:14.856Z,0.20
2022-10-04T12:37:16.615Z,0.10
2022-10-04T12:42:18.377Z,0.10
2022-10-04T12:47:20.124Z,0.10
2022-10-04T12:52:21.877Z,0.20
2022-10-04T12:57:23.657Z,0.25
2022-10-04T13:02:25.323Z,0.20
2022-10-04T13:07:26.855Z,2.80
2022-10-04T13:12:28.564Z,0.20
2022-10-04T13:17:35.792Z,0.15
2022-10-04T13:22:56.074Z,0.75
2022-10-04T13:27:58.614Z,0.10
2022-10-04T13:33:00.357Z,0.28
2022-10-04T13:38:02.088Z,0.30
2022-10-04T13:43:03.842Z,0.15
2022-10-04T13:48:09.243Z,0.10
2022-10-04T13:53:13.641Z,0.20
2022-10-04T13:58:15.305Z,0.28
2022-10-04T14:03:17.193Z,0.10
2022-10-04T14:08:18.894Z,0.10
2022-10-04T14:13:20.672Z,0.20
2022-10-04T14:18:26.975Z,0.10
2022-10-04T14:23:29.176Z,0.52
2022-10-04T14:28:31.003Z,0.10
2022-10-04T14:33:32.673Z,0.10
2022-10-04T14:38:34.408Z,1.60
2022-10-04T14:43:36.160Z,7.32
2022-10-04T14:48:37.946Z,8.25
2022-10-04T14:53:39.680Z,8.15
2022-10-04T14:58:41.232Z,4.90
2022-10-04T15:03:42.871Z,5.80
2022-10-04T15:08:44.678Z,7.93
2022-10-04T15:13:46.407Z,4.40
2022-10-04T15:18:48.160Z,7.72
2022-10-04T15:23:49.913Z,6.07
2022-10-04T15:28:51.691Z,5.18
2022-10-04T15:33:53.428Z,5.97
2022-10-04T15:38:54.959Z,12.40
2022-10-04T15:43:56.623Z,5.90
2022-10-04T15:48:58.344Z,11.68
2022-10-04T15:53:59.893Z,8.40
2022-10-04T15:59:01.570Z,9.75
2022-10-04T16:04:06.746Z,8.75
2022-10-04T16:09:11.049Z,9.38
2022-10-04T16:14:12.804Z,10.88
2022-10-04T16:19:14.534Z,11.85
2022-10-04T16:24:16.437Z,11.45
2022-10-04T16:29:18.056Z,13.40
2022-10-04T16:34:19.798Z,11.05
2022-10-04T16:39:21.345Z,25.95
2022-10-04T16:44:22.962Z,40.03
2022-10-04T16:49:24.741Z,28.85
2022-10-04T16:54:26.505Z,13.75
2022-10-04T16:59:28.257Z,11.93
2022-10-04T17:04:29.994Z,9.25
2022-10-04T17:09:31.571Z,10.45
2022-10-04T17:14:33.197Z,11.32
2022-10-04T17:19:34.973Z,9.95
2022-10-04T17:24:36.516Z,7.75
2022-10-04T17:29:38.155Z,19.67
2022-10-04T17:34:39.899Z,13.85
2022-10-04T17:39:41.457Z,12.13
2022-10-04T17:44:43.108Z,14.20
2022-10-04T17:49:44.862Z,17.52
2022-10-04T17:54:46.600Z,13.55
2022-10-04T17:59:48.157Z,14.82
2022-10-04T18:04:49.796Z,20.85
2022-10-04T18:09:51.553Z,19.48
2022-10-04T18:14:53.302Z,15.77
2022-10-04T18:19:55.120Z,18.58
2022-10-04T18:24:56.848Z,19.70
2022-10-04T18:29:58.578Z,20.98
2022-10-04T18:35:00.390Z,17.77
2022-10-04T18:40:02.088Z,19.80
2022-10-04T18:45:03.884Z,18.52
2022-10-04T18:50:05.590Z,22.52
2022-10-04T18:55:07.358Z,21.70
2022-10-04T19:00:09.117Z,15.88
2022-10-04T19:05:10.880Z,14.57
2022-10-04T19:10:12.442Z,17.30
2022-10-04T19:15:14.053Z,14.27
2022-10-04T19:20:18.904Z,20.65
2022-10-04T19:25:21.010Z,18.45
2022-10-04T19:30:22.781Z,18.80
2022-10-04T19:35:24.517Z,22.20
2022-10-04T19:40:26.273Z,23.00
2022-10-04T19:45:27.955Z,20.75
2022-10-04T19:50:29.759Z,29.95
2022-10-04T19:55:31.510Z,24.35
2022-10-04T20:00:33.266Z,26.45
2022-10-04T20:05:35.039Z,29.25
2022-10-04T20:10:36.796Z,29.90
2022-10-04T20:15:38.532Z,29.40
2022-10-04T20:20:40.071Z,31.05
2022-10-04T20:25:41.606Z,33.17
2022-10-04T20:30:43.192Z,31.58
2022-10-04T20:35:44.931Z,37.75
2022-10-04T20:40:46.461Z,29.48
2022-10-04T20:45:48.181Z,34.95
2022-10-04T20:50:49.899Z,37.13
2022-10-04T20:55:51.653Z,36.22
2022-10-04T21:00:53.427Z,31.60
2022-10-04T21:05:55.145Z,36.85
2022-10-04T21:10:56.897Z,33.85
2022-10-04T21:15:58.659Z,36.92
2022-10-04T21:21:02.401Z,31.58
2022-10-04T21:26:04.049Z,31.23
2022-10-04T21:31:05.798Z,30.10
2022-10-04T21:36:07.525Z,31.23
2022-10-04T21:41:09.070Z,34.88
2022-10-04T21:46:10.802Z,37.10
2022-10-04T21:51:12.495Z,35.08
2022-10-04T21:56:14.266Z,32.70
2022-10-04T22:01:16.043Z,38.20
2022-10-04T22:06:17.773Z,36.13
2022-10-04T22:11:19.503Z,38.47
2022-10-04T22:16:21.382Z,36.97
2022-10-04T22:21:23.034Z,36.67
2022-10-04T22:26:24.766Z,34.95
2022-10-04T22:31:26.340Z,35.65
2022-10-04T22:36:27.985Z,37.70
2022-10-04T22:41:29.704Z,34.78
2022-10-04T22:46:31.454Z,37.50
2022-10-04T22:51:33.234Z,34.53
2022-10-04T22:56:34.773Z,38.42
2022-10-04T23:01:36.436Z,37.90
2022-10-04T23:06:37.962Z,36.85
2022-10-04T23:11:39.629Z,37.00
2022-10-04T23:16:41.371Z,33.35
2022-10-04T23:21:43.105Z,35.47
2022-10-04T23:26:45.074Z,39.25
2022-10-04T23:31:46.879Z,40.63
2022-10-04T23:36:49.193Z,39.85
2022-10-04T23:41:51.004Z,37.60
2022-10-04T23:46:52.852Z,33.97
2022-10-04T23:51:54.594Z,42.28
2022-10-04T23:56:56.334Z,36.13
